Grayson, KY

6:10 AM EST on February 09, 2016 (GMT -0500)
Green | | Change Station
CLOSE
Current Station
Personal Weather Station
Location: Olive Hill, KY
Elevation: 883 ft
Nearby Weather Stations
Active Advisory: Winter Weather Advisory

Elev 883 ft 38.19 °N, 83.08 °W | Updated 3 minutes ago

Overcast
Overcast
23.5 °F
Feels Like 24 °F
N
0.0
Wind Variable Wind from North
Gusts 0.0 mph

Today
High -- | Low -- °F
--% Chance of Precip.
Yesterday
High -- | Low -- °F
Precip. -- in
Pressure 29.73 in
Visibility 10.0 miles
Clouds Few 2000 ft
Overcast 3900 ft
Windchill 24 °F
Dew Point 3 °F
Humidity 41%
Rainfall Not available.
Snow Depth Not available.
7:29 AM 6:02 PM
New Moon, 1% visible
METAR KHTS 091051Z 27009G17KT 230V300 10SM FEW020 OVC039 M04/M09 A2971 RMK AO2 SLP068 T10441089
Pressure 29.73 in
Visibility 10.0 miles
Clouds Few 2000 ft
Overcast 3900 ft
Windchill 24 °F
Dew Point 3 °F
Humidity 41%
Rainfall Not available.
Snow Depth Not available.
7:29 AM 6:02 PM
New Moon, 1% visible
METAR KHTS 091051Z 27009G17KT 230V300 10SM FEW020 OVC039 M04/M09 A2971 RMK AO2 SLP068 T10441089

10-Day Weather Forecast

Almanac

Astronomy

Feb. 09, 2016 Rise Set
Actual Time
Civil Twilight
Nautical Twilight
Astronomical Twilight
Moon
Length of Visible Light
Length of Day
Tomorrow will be .
, % of the Moon is Illuminated

Today's Extremes

State Highs State Lows

Community

WunderPhotos

Upload Photos

1,891,565 photos uploaded!

WunderBlog® & News

Nearby

Air Quality

  Air Quality AQ Index Pollutant
Not available.

Snow Depth

Station Depth Elevation

Earthquake Activity

City Distance Mag. Time & Date
Minimum magnitude displayed is 2.5.

Coastal Water Temperatures

Place Temperature

Stations

Nearby Weather Stations

Station Location Temp. Windchill Dew Point Humidity Wind Precip. Elev Updated Type
                   

Watches & Warnings

Winter Weather Advisory
Issued: 4:54 AM EST Feb. 9, 2016 – National Weather Service

... Winter Weather Advisory remains in effect until 7 am EST
Wednesday...

* hazard types... snow.

* Snow accumulations... 3 to 6 inches.

* Timing... snow showers will be frequent today through tonight but
may even linger into Wednesday.

* Impacts... travel may be difficult at times.Wet snow last night
may make for ice beneath the snow... making the roads that much
more treacherous. Visibilities will be limited at times.

Precautionary/preparedness actions...

A Winter Weather Advisory for snow means that periods of snow
will cause primarily travel difficulties. Be prepared for snow
covered roads and limited visibilities... and use caution while
driving.



Trm